EJU54JV LFBD-LIEO
Flight info
| Callsign | EJU54JV |
|---|---|
| Flight time | 1h 28m |
| Altitude | 37000 |
| Route | OBLOC DCT SECHE DCT SOVET DCT FJR DCT AMFAC DCT RUBAS DCT LOKDU M623 PELOS DCT IPROM DCT MINKA |
| Aircraft | A320/M-SDE3FGHIRWY/LB1 |
Departure
| Time | 2026-05-06 16:15 |
|---|---|
| Airport | Bordeaux–Mérignac Airport (LFBD) |
Arrival
| Time | 2026-05-06 17:43 |
|---|---|
| Airport | Olbia Costa Smeralda Airport (LIEO) |
| Time | Latitude | Longitude | Altitude | Speed | Heading |
|---|---|---|---|---|---|
| 2026-05-06 15:44 | 44.82874 | -0.70033 | 169 ft | 0 kts | 16° |
| 2026-05-06 16:05 | 44.82857 | -0.70040 | 169 ft | 4 kts | 10° |
| 2026-05-06 16:05 | 44.82830 | -0.70043 | 169 ft | 4 kts | 355° |
| 2026-05-06 16:05 | 44.82807 | -0.70037 | 170 ft | 1 kts | 340° |
| 2026-05-06 16:05 | 44.82803 | -0.70034 | 170 ft | 0 kts | 340° |
| 2026-05-06 16:08 | 44.82812 | -0.70040 | 170 ft | 4 kts | 332° |
| 2026-05-06 16:09 | 44.82823 | -0.70066 | 170 ft | 3 kts | 283° |
| 2026-05-06 16:09 | 44.82825 | -0.70076 | 170 ft | 0 kts | 283° |
| 2026-05-06 16:10 | 44.82830 | -0.70107 | 170 ft | 4 kts | 284° |
| 2026-05-06 16:10 | 44.82837 | -0.70144 | 170 ft | 3 kts | 286° |
| 2026-05-06 16:11 | 44.82844 | -0.70179 | 170 ft | 5 kts | 286° |
| 2026-05-06 16:11 | 44.82857 | -0.70238 | 170 ft | 8 kts | 287° |
| 2026-05-06 16:11 | 44.82872 | -0.70305 | 170 ft | 7 kts | 287° |
| 2026-05-06 16:11 | 44.82885 | -0.70362 | 170 ft | 6 kts | 287° |
| 2026-05-06 16:12 | 44.82895 | -0.70410 | 170 ft | 5 kts | 287° |
| 2026-05-06 16:12 | 44.82896 | -0.70448 | 170 ft | 3 kts | 251° |
| 2026-05-06 16:12 | 44.82848 | -0.70462 | 170 ft | 14 kts | 144° |
| 2026-05-06 16:12 | 44.82809 | -0.70309 | 170 ft | 18 kts | 107° |
| 2026-05-06 16:13 | 44.82771 | -0.70128 | 170 ft | 20 kts | 106° |
| 2026-05-06 16:13 | 44.82727 | -0.69955 | 169 ft | 14 kts | 134° |
| 2026-05-06 16:13 | 44.82645 | -0.69961 | 171 ft | 11 kts | 198° |
| 2026-05-06 16:13 | 44.82584 | -0.69989 | 172 ft | 9 kts | 198° |
| 2026-05-06 16:14 | 44.82550 | -0.70033 | 172 ft | 6 kts | 279° |
| 2026-05-06 16:14 | 44.82554 | -0.70050 | 172 ft | 0 kts | 287° |
| 2026-05-06 16:14 | 44.82577 | -0.70158 | 173 ft | 41 kts | 286° |
| 2026-05-06 16:15 | 44.82734 | -0.70903 | 168 ft | 114 kts | 286° |
| 2026-05-06 16:15 | 44.83011 | -0.72218 | 299 ft | 154 kts | 287° |
| 2026-05-06 16:15 | 44.83304 | -0.73657 | 995 ft | 153 kts | 285° |
| 2026-05-06 16:15 | 44.83605 | -0.75136 | 1554 ft | 167 kts | 286° |
| 2026-05-06 16:16 | 44.83956 | -0.76809 | 1981 ft | 190 kts | 286° |
| 2026-05-06 16:16 | 44.84355 | -0.78709 | 2402 ft | 215 kts | 286° |
| 2026-05-06 16:16 | 44.84801 | -0.80840 | 2908 ft | 239 kts | 286° |
| 2026-05-06 16:16 | 44.85289 | -0.83171 | 3612 ft | 254 kts | 286° |
| 2026-05-06 16:17 | 44.85792 | -0.85581 | 4557 ft | 258 kts | 286° |
| 2026-05-06 16:17 | 44.86304 | -0.88028 | 5468 ft | 264 kts | 286° |
| 2026-05-06 16:17 | 44.86824 | -0.90520 | 6055 ft | 266 kts | 286° |
| 2026-05-06 16:17 | 44.87349 | -0.93033 | 6971 ft | 268 kts | 286° |
| 2026-05-06 16:18 | 44.87877 | -0.95569 | 7882 ft | 272 kts | 286° |
| 2026-05-06 16:18 | 44.88414 | -0.98143 | 8771 ft | 275 kts | 286° |
| 2026-05-06 16:18 | 44.88957 | -1.00750 | 9623 ft | 279 kts | 286° |
| 2026-05-06 16:18 | 44.89511 | -1.03410 | 10302 ft | 291 kts | 286° |
| 2026-05-06 16:19 | 44.90015 | -1.06283 | 10604 ft | 315 kts | 276° |
| 2026-05-06 16:19 | 44.89787 | -1.09443 | 10895 ft | 336 kts | 250° |
| 2026-05-06 16:19 | 44.88568 | -1.12224 | 11497 ft | 344 kts | 225° |
| 2026-05-06 16:19 | 44.86559 | -1.14039 | 12209 ft | 349 kts | 199° |
| 2026-05-06 16:20 | 44.84154 | -1.14408 | 12923 ft | 352 kts | 172° |
| 2026-05-06 16:20 | 44.81867 | -1.13212 | 13621 ft | 356 kts | 145° |
| 2026-05-06 16:20 | 44.80174 | -1.10685 | 14305 ft | 359 kts | 119° |
| 2026-05-06 16:20 | 44.79220 | -1.07418 | 14983 ft | 362 kts | 108° |
| 2026-05-06 16:21 | 44.78469 | -1.04014 | 15646 ft | 366 kts | 106° |
| 2026-05-06 16:21 | 44.77790 | -1.00548 | 16289 ft | 369 kts | 105° |
| 2026-05-06 16:21 | 44.77120 | -0.97040 | 16921 ft | 372 kts | 105° |
| 2026-05-06 16:21 | 44.76428 | -0.93513 | 17537 ft | 376 kts | 105° |
| 2026-05-06 16:22 | 44.75700 | -0.89960 | 18146 ft | 379 kts | 106° |
| 2026-05-06 16:22 | 44.74943 | -0.86395 | 18739 ft | 383 kts | 107° |
| 2026-05-06 16:22 | 44.74161 | -0.82800 | 19316 ft | 386 kts | 107° |
| 2026-05-06 16:22 | 44.73363 | -0.79173 | 19898 ft | 389 kts | 107° |
| 2026-05-06 16:23 | 44.72557 | -0.75522 | 20455 ft | 393 kts | 107° |
| 2026-05-06 16:23 | 44.71745 | -0.71842 | 20995 ft | 396 kts | 107° |
| 2026-05-06 16:23 | 44.70931 | -0.68133 | 21513 ft | 399 kts | 107° |
| 2026-05-06 16:23 | 44.70111 | -0.64394 | 22011 ft | 402 kts | 107° |
| 2026-05-06 16:24 | 44.69284 | -0.60632 | 22483 ft | 404 kts | 107° |
| 2026-05-06 16:24 | 44.68451 | -0.56841 | 22960 ft | 407 kts | 107° |
| 2026-05-06 16:24 | 44.67612 | -0.53028 | 23408 ft | 410 kts | 107° |
| 2026-05-06 16:24 | 44.66766 | -0.49190 | 23837 ft | 413 kts | 107° |
| 2026-05-06 16:25 | 44.65915 | -0.45329 | 24254 ft | 415 kts | 107° |
| 2026-05-06 16:25 | 44.65060 | -0.41450 | 24649 ft | 418 kts | 107° |
| 2026-05-06 16:25 | 44.64196 | -0.37534 | 25040 ft | 420 kts | 107° |
| 2026-05-06 16:25 | 44.63327 | -0.33613 | 25416 ft | 422 kts | 107° |
| 2026-05-06 16:26 | 44.62449 | -0.29667 | 25785 ft | 425 kts | 107° |
| 2026-05-06 16:26 | 44.61565 | -0.25704 | 26140 ft | 427 kts | 107° |
| 2026-05-06 16:26 | 44.60674 | -0.21718 | 26484 ft | 429 kts | 107° |
| 2026-05-06 16:26 | 44.59775 | -0.17704 | 26823 ft | 431 kts | 107° |
| 2026-05-06 16:27 | 44.58872 | -0.13685 | 27152 ft | 433 kts | 107° |
| 2026-05-06 16:27 | 44.57963 | -0.09641 | 27471 ft | 435 kts | 107° |
| 2026-05-06 16:27 | 44.57049 | -0.05588 | 27776 ft | 437 kts | 107° |
| 2026-05-06 16:27 | 44.56139 | -0.01563 | 28071 ft | 439 kts | 108° |
| 2026-05-06 16:28 | 44.55211 | 0.02532 | 28356 ft | 441 kts | 108° |
| 2026-05-06 16:28 | 44.54280 | 0.06635 | 28627 ft | 443 kts | 108° |
| 2026-05-06 16:28 | 44.53343 | 0.10762 | 28885 ft | 445 kts | 108° |
| 2026-05-06 16:28 | 44.52404 | 0.14901 | 29131 ft | 446 kts | 108° |
| 2026-05-06 16:29 | 44.51465 | 0.19051 | 29367 ft | 448 kts | 108° |
| 2026-05-06 16:29 | 44.50519 | 0.23222 | 29590 ft | 450 kts | 108° |
| 2026-05-06 16:29 | 44.49568 | 0.27401 | 29800 ft | 451 kts | 108° |
| 2026-05-06 16:29 | 44.48612 | 0.31578 | 30073 ft | 450 kts | 108° |
| 2026-05-06 16:30 | 44.47654 | 0.35746 | 30363 ft | 450 kts | 108° |
| 2026-05-06 16:30 | 44.47020 | 0.38507 | 30551 ft | 449 kts | 108° |
| 2026-05-06 16:30 | 44.45742 | 0.44068 | 30917 ft | 448 kts | 108° |
| 2026-05-06 16:30 | 44.44785 | 0.48224 | 31193 ft | 448 kts | 108° |
| 2026-05-06 16:31 | 44.43828 | 0.52360 | 31465 ft | 447 kts | 108° |
| 2026-05-06 16:31 | 44.42864 | 0.56500 | 31742 ft | 447 kts | 108° |
| 2026-05-06 16:31 | 44.41901 | 0.60626 | 32019 ft | 446 kts | 108° |
| 2026-05-06 16:31 | 44.40939 | 0.64748 | 32295 ft | 445 kts | 108° |
| 2026-05-06 16:32 | 44.39980 | 0.68869 | 32565 ft | 445 kts | 108° |
| 2026-05-06 16:32 | 44.39024 | 0.72978 | 32834 ft | 444 kts | 108° |
| 2026-05-06 16:32 | 44.38067 | 0.77086 | 33092 ft | 444 kts | 108° |
| 2026-05-06 16:32 | 44.37107 | 0.81184 | 33352 ft | 444 kts | 108° |
| 2026-05-06 16:33 | 44.36144 | 0.85273 | 33611 ft | 443 kts | 108° |
| 2026-05-06 16:33 | 44.35181 | 0.89368 | 33864 ft | 443 kts | 108° |
| 2026-05-06 16:33 | 44.34219 | 0.93459 | 34117 ft | 443 kts | 108° |
| 2026-05-06 16:34 | 44.32298 | 1.01620 | 34648 ft | 441 kts | 108° |
| 2026-05-06 16:34 | 44.31334 | 1.05687 | 34900 ft | 441 kts | 108° |
| 2026-05-06 16:34 | 44.30370 | 1.09748 | 35148 ft | 440 kts | 108° |
| 2026-05-06 16:34 | 44.29408 | 1.13798 | 35390 ft | 440 kts | 108° |
| 2026-05-06 16:35 | 44.28446 | 1.17850 | 35626 ft | 439 kts | 108° |
| 2026-05-06 16:35 | 44.27481 | 1.21897 | 35851 ft | 439 kts | 108° |
| 2026-05-06 16:35 | 44.26516 | 1.25937 | 36066 ft | 438 kts | 108° |
| 2026-05-06 16:35 | 44.25562 | 1.29910 | 36263 ft | 438 kts | 108° |
| 2026-05-06 16:36 | 44.24592 | 1.33937 | 36454 ft | 438 kts | 108° |
| 2026-05-06 16:36 | 44.23624 | 1.37959 | 36643 ft | 438 kts | 108° |
| 2026-05-06 16:36 | 44.22656 | 1.41980 | 36829 ft | 438 kts | 108° |
| 2026-05-06 16:36 | 44.21682 | 1.46007 | 36976 ft | 438 kts | 108° |
| 2026-05-06 16:37 | 44.20711 | 1.50028 | 37011 ft | 438 kts | 108° |
| 2026-05-06 16:37 | 44.18769 | 1.58077 | 37009 ft | 438 kts | 108° |
| 2026-05-06 16:38 | 44.16815 | 1.66114 | 37009 ft | 438 kts | 109° |
| 2026-05-06 16:38 | 44.14849 | 1.74152 | 37009 ft | 438 kts | 109° |
| 2026-05-06 16:39 | 44.12881 | 1.82190 | 37009 ft | 438 kts | 109° |
| 2026-05-06 16:39 | 44.10923 | 1.90229 | 37009 ft | 439 kts | 109° |
| 2026-05-06 16:40 | 44.08954 | 1.98262 | 37009 ft | 439 kts | 109° |
| 2026-05-06 16:40 | 44.06979 | 2.06287 | 37009 ft | 438 kts | 109° |
| 2026-05-06 16:41 | 44.05002 | 2.14315 | 37009 ft | 439 kts | 109° |
| 2026-05-06 16:41 | 44.03013 | 2.22334 | 37009 ft | 439 kts | 109° |
| 2026-05-06 16:42 | 44.01012 | 2.30353 | 37009 ft | 440 kts | 109° |
| 2026-05-06 16:42 | 43.99010 | 2.38379 | 37009 ft | 440 kts | 109° |
| 2026-05-06 16:43 | 43.96998 | 2.46399 | 37009 ft | 439 kts | 109° |
| 2026-05-06 16:43 | 43.94983 | 2.54403 | 37009 ft | 440 kts | 109° |
| 2026-05-06 16:44 | 43.92962 | 2.62418 | 37009 ft | 440 kts | 109° |
| 2026-05-06 16:44 | 43.90937 | 2.70428 | 37009 ft | 440 kts | 109° |
| 2026-05-06 16:45 | 43.88909 | 2.78450 | 37009 ft | 440 kts | 109° |
| 2026-05-06 16:45 | 43.86875 | 2.86441 | 37009 ft | 440 kts | 109° |
| 2026-05-06 16:46 | 43.85171 | 2.93078 | 37009 ft | 440 kts | 109° |
| 2026-05-06 16:46 | 43.82781 | 3.02374 | 37009 ft | 441 kts | 109° |
| 2026-05-06 16:47 | 43.80719 | 3.10364 | 37009 ft | 441 kts | 109° |
| 2026-05-06 16:47 | 43.78654 | 3.18351 | 37009 ft | 441 kts | 110° |
| 2026-05-06 16:48 | 43.76920 | 3.25053 | 37009 ft | 441 kts | 110° |
| 2026-05-06 16:48 | 43.74846 | 3.33034 | 37010 ft | 440 kts | 110° |
| 2026-05-06 16:49 | 43.72770 | 3.40983 | 37009 ft | 439 kts | 110° |
| 2026-05-06 16:49 | 43.70706 | 3.48869 | 37009 ft | 439 kts | 110° |
| 2026-05-06 16:50 | 43.68631 | 3.56787 | 37009 ft | 438 kts | 110° |
| 2026-05-06 16:50 | 43.66553 | 3.64689 | 37009 ft | 438 kts | 110° |
| 2026-05-06 16:51 | 43.64468 | 3.72596 | 37009 ft | 438 kts | 110° |
| 2026-05-06 16:51 | 43.62372 | 3.80479 | 37009 ft | 438 kts | 110° |
| 2026-05-06 16:52 | 43.60271 | 3.88355 | 37009 ft | 437 kts | 110° |
| 2026-05-06 16:52 | 43.57993 | 3.96120 | 37009 ft | 437 kts | 118° |
| 2026-05-06 16:53 | 43.54402 | 4.02832 | 37010 ft | 436 kts | 131° |
| 2026-05-06 16:53 | 43.50355 | 4.09075 | 37009 ft | 437 kts | 131° |
| 2026-05-06 16:54 | 43.46313 | 4.15315 | 37009 ft | 437 kts | 131° |
| 2026-05-06 16:54 | 43.42274 | 4.21561 | 37009 ft | 437 kts | 131° |
| 2026-05-06 16:55 | 43.38231 | 4.27806 | 37009 ft | 437 kts | 131° |
| 2026-05-06 16:55 | 43.34193 | 4.34035 | 37009 ft | 437 kts | 131° |
| 2026-05-06 16:56 | 43.30139 | 4.40257 | 37009 ft | 437 kts | 132° |
| 2026-05-06 16:56 | 43.26082 | 4.46468 | 37009 ft | 437 kts | 132° |
| 2026-05-06 16:57 | 43.22049 | 4.52629 | 37009 ft | 437 kts | 132° |
| 2026-05-06 16:57 | 43.17981 | 4.58821 | 37009 ft | 437 kts | 132° |
| 2026-05-06 16:58 | 43.13915 | 4.65012 | 37009 ft | 437 kts | 132° |
| 2026-05-06 16:58 | 43.09847 | 4.71192 | 37009 ft | 437 kts | 132° |
| 2026-05-06 16:59 | 43.05774 | 4.77363 | 37009 ft | 437 kts | 132° |
| 2026-05-06 16:59 | 43.01696 | 4.83528 | 37009 ft | 437 kts | 132° |
| 2026-05-06 17:00 | 42.97620 | 4.89679 | 37009 ft | 437 kts | 132° |
| 2026-05-06 17:00 | 42.93561 | 4.95778 | 37009 ft | 437 kts | 132° |
| 2026-05-06 17:01 | 42.89480 | 5.01926 | 37009 ft | 437 kts | 130° |
| 2026-05-06 17:01 | 42.86215 | 5.08867 | 37009 ft | 437 kts | 114° |
| 2026-05-06 17:02 | 42.83800 | 5.16462 | 37009 ft | 437 kts | 113° |
| 2026-05-06 17:02 | 42.81374 | 5.24047 | 37009 ft | 437 kts | 114° |
| 2026-05-06 17:03 | 42.78935 | 5.31623 | 37009 ft | 437 kts | 114° |
| 2026-05-06 17:03 | 42.76494 | 5.39201 | 37009 ft | 437 kts | 114° |
| 2026-05-06 17:04 | 42.74055 | 5.46771 | 37009 ft | 437 kts | 114° |
| 2026-05-06 17:04 | 42.71602 | 5.54335 | 37009 ft | 437 kts | 114° |
| 2026-05-06 17:05 | 42.69145 | 5.61893 | 37009 ft | 437 kts | 114° |
| 2026-05-06 17:05 | 42.66682 | 5.69442 | 37009 ft | 437 kts | 114° |
| 2026-05-06 17:06 | 42.64218 | 5.76984 | 37009 ft | 437 kts | 114° |
| 2026-05-06 17:06 | 42.61754 | 5.84530 | 37009 ft | 437 kts | 114° |
| 2026-05-06 17:07 | 42.59279 | 5.92059 | 37009 ft | 437 kts | 114° |
| 2026-05-06 17:07 | 42.56809 | 5.99532 | 37009 ft | 437 kts | 114° |
| 2026-05-06 17:08 | 42.54327 | 6.07055 | 37009 ft | 437 kts | 114° |
| 2026-05-06 17:08 | 42.51842 | 6.14576 | 37009 ft | 437 kts | 114° |
| 2026-05-06 17:09 | 42.49350 | 6.22096 | 37009 ft | 437 kts | 114° |
| 2026-05-06 17:09 | 42.46850 | 6.29597 | 37009 ft | 437 kts | 114° |
| 2026-05-06 17:10 | 42.44340 | 6.37100 | 37009 ft | 437 kts | 114° |
| 2026-05-06 17:10 | 42.41827 | 6.44587 | 37009 ft | 437 kts | 114° |
| 2026-05-06 17:11 | 42.39312 | 6.52075 | 37009 ft | 437 kts | 114° |
| 2026-05-06 17:11 | 42.36857 | 6.59592 | 37009 ft | 437 kts | 111° |
| 2026-05-06 17:12 | 42.34787 | 6.67311 | 37009 ft | 437 kts | 108° |
| 2026-05-06 17:12 | 42.32858 | 6.75097 | 37009 ft | 437 kts | 109° |
| 2026-05-06 17:13 | 42.30867 | 6.82851 | 37009 ft | 437 kts | 109° |
| 2026-05-06 17:13 | 42.28811 | 6.90571 | 37009 ft | 437 kts | 110° |
| 2026-05-06 17:14 | 42.26750 | 6.98233 | 37009 ft | 437 kts | 110° |
| 2026-05-06 17:14 | 42.24672 | 7.05953 | 37009 ft | 437 kts | 110° |
| 2026-05-06 17:15 | 42.22598 | 7.13667 | 37009 ft | 437 kts | 110° |
| 2026-05-06 17:15 | 42.20523 | 7.21378 | 37009 ft | 437 kts | 110° |
| 2026-05-06 17:16 | 42.18445 | 7.29076 | 37009 ft | 437 kts | 110° |
| 2026-05-06 17:16 | 42.16363 | 7.36766 | 37009 ft | 437 kts | 110° |
| 2026-05-06 17:17 | 42.14275 | 7.44456 | 37009 ft | 437 kts | 110° |
| 2026-05-06 17:17 | 42.12173 | 7.52148 | 37009 ft | 437 kts | 110° |
| 2026-05-06 17:18 | 42.10061 | 7.59818 | 37009 ft | 437 kts | 110° |
| 2026-05-06 17:18 | 42.07954 | 7.67494 | 37009 ft | 437 kts | 110° |
| 2026-05-06 17:19 | 42.05845 | 7.75180 | 37009 ft | 437 kts | 110° |
| 2026-05-06 17:19 | 42.03732 | 7.82847 | 37009 ft | 437 kts | 110° |
| 2026-05-06 17:20 | 42.01610 | 7.90509 | 37009 ft | 437 kts | 110° |
| 2026-05-06 17:20 | 41.98680 | 7.97604 | 37009 ft | 436 kts | 131° |
| 2026-05-06 17:20 | 41.96496 | 8.00429 | 37009 ft | 436 kts | 142° |
| 2026-05-06 17:21 | 41.93976 | 8.02592 | 37009 ft | 436 kts | 154° |
| 2026-05-06 17:21 | 41.91150 | 8.04076 | 37009 ft | 436 kts | 165° |
| 2026-05-06 17:21 | 41.88170 | 8.04807 | 37011 ft | 436 kts | 173° |
| 2026-05-06 17:22 | 41.82127 | 8.05728 | 37009 ft | 437 kts | 173° |
| 2026-05-06 17:22 | 41.76084 | 8.06663 | 37009 ft | 437 kts | 173° |
| 2026-05-06 17:23 | 41.70044 | 8.07607 | 37009 ft | 437 kts | 173° |
| 2026-05-06 17:23 | 41.64001 | 8.08553 | 37009 ft | 437 kts | 173° |
| 2026-05-06 17:24 | 41.57970 | 8.09568 | 37008 ft | 437 kts | 166° |
| 2026-05-06 17:24 | 41.55150 | 8.11039 | 37007 ft | 436 kts | 149° |
| 2026-05-06 17:24 | 41.52742 | 8.13501 | 36441 ft | 440 kts | 133° |
| 2026-05-06 17:24 | 41.50966 | 8.16803 | 35667 ft | 439 kts | 116° |
| 2026-05-06 17:25 | 41.49956 | 8.20644 | 34890 ft | 438 kts | 104° |
| 2026-05-06 17:25 | 41.49222 | 8.24586 | 34115 ft | 439 kts | 103° |
| 2026-05-06 17:25 | 41.48507 | 8.28548 | 33338 ft | 440 kts | 103° |
| 2026-05-06 17:25 | 41.47791 | 8.32523 | 32560 ft | 441 kts | 103° |
| 2026-05-06 17:26 | 41.47075 | 8.36507 | 31780 ft | 443 kts | 103° |
| 2026-05-06 17:26 | 41.46356 | 8.40501 | 31003 ft | 444 kts | 103° |
| 2026-05-06 17:26 | 41.45642 | 8.44469 | 30231 ft | 446 kts | 103° |
| 2026-05-06 17:26 | 41.44917 | 8.48497 | 29452 ft | 447 kts | 103° |
| 2026-05-06 17:27 | 41.44190 | 8.52537 | 28675 ft | 449 kts | 103° |
| 2026-05-06 17:27 | 41.43459 | 8.56591 | 27899 ft | 451 kts | 103° |
| 2026-05-06 17:27 | 41.42730 | 8.60635 | 27121 ft | 447 kts | 103° |
| 2026-05-06 17:27 | 41.42007 | 8.64639 | 26345 ft | 443 kts | 103° |
| 2026-05-06 17:28 | 41.41282 | 8.68656 | 25562 ft | 438 kts | 103° |
| 2026-05-06 17:28 | 41.40583 | 8.72524 | 24793 ft | 433 kts | 103° |
| 2026-05-06 17:28 | 41.39881 | 8.76409 | 24016 ft | 429 kts | 103° |
| 2026-05-06 17:28 | 41.39186 | 8.80248 | 23241 ft | 425 kts | 103° |
| 2026-05-06 17:29 | 41.38495 | 8.84065 | 22463 ft | 422 kts | 103° |
| 2026-05-06 17:29 | 41.37810 | 8.87851 | 21683 ft | 419 kts | 103° |
| 2026-05-06 17:29 | 41.37128 | 8.91609 | 20909 ft | 417 kts | 103° |
| 2026-05-06 17:29 | 41.36450 | 8.95348 | 20113 ft | 414 kts | 103° |
| 2026-05-06 17:30 | 41.35776 | 8.99064 | 19354 ft | 412 kts | 103° |
| 2026-05-06 17:30 | 41.35104 | 9.02765 | 18576 ft | 410 kts | 103° |
| 2026-05-06 17:30 | 41.34436 | 9.06439 | 17799 ft | 408 kts | 103° |
| 2026-05-06 17:30 | 41.33770 | 9.10101 | 17021 ft | 406 kts | 103° |
| 2026-05-06 17:31 | 41.33107 | 9.13744 | 16235 ft | 404 kts | 103° |
| 2026-05-06 17:31 | 41.32447 | 9.17369 | 15466 ft | 403 kts | 103° |
| 2026-05-06 17:31 | 41.31789 | 9.20982 | 14688 ft | 401 kts | 103° |
| 2026-05-06 17:31 | 41.31133 | 9.24577 | 13910 ft | 399 kts | 103° |
| 2026-05-06 17:32 | 41.30481 | 9.28154 | 13132 ft | 397 kts | 103° |
| 2026-05-06 17:32 | 41.29834 | 9.31701 | 12353 ft | 392 kts | 103° |
| 2026-05-06 17:32 | 41.29208 | 9.35125 | 11573 ft | 370 kts | 103° |
| 2026-05-06 17:32 | 41.28615 | 9.38373 | 10796 ft | 355 kts | 103° |
| 2026-05-06 17:33 | 41.28040 | 9.41518 | 10022 ft | 344 kts | 103° |
| 2026-05-06 17:33 | 41.27453 | 9.44523 | 9249 ft | 329 kts | 109° |
| 2026-05-06 17:33 | 41.26345 | 9.47099 | 8469 ft | 316 kts | 128° |
| 2026-05-06 17:33 | 41.24986 | 9.49342 | 7701 ft | 307 kts | 129° |
| 2026-05-06 17:34 | 41.23624 | 9.51483 | 6927 ft | 299 kts | 134° |
| 2026-05-06 17:34 | 41.22172 | 9.53419 | 6145 ft | 293 kts | 135° |
| 2026-05-06 17:34 | 41.20721 | 9.55280 | 5468 ft | 284 kts | 136° |
| 2026-05-06 17:34 | 41.19794 | 9.56449 | 5343 ft | 273 kts | 136° |
| 2026-05-06 17:35 | 41.18436 | 9.58151 | 5140 ft | 264 kts | 136° |
| 2026-05-06 17:35 | 41.17106 | 9.59817 | 4940 ft | 262 kts | 136° |
| 2026-05-06 17:35 | 41.15791 | 9.61472 | 4740 ft | 261 kts | 136° |
| 2026-05-06 17:36 | 41.13167 | 9.64783 | 4339 ft | 259 kts | 136° |
| 2026-05-06 17:36 | 41.11888 | 9.66396 | 4142 ft | 248 kts | 136° |
| 2026-05-06 17:36 | 41.10661 | 9.67941 | 3935 ft | 238 kts | 136° |
| 2026-05-06 17:36 | 41.09482 | 9.69426 | 3735 ft | 230 kts | 136° |
| 2026-05-06 17:37 | 41.08340 | 9.70866 | 3534 ft | 222 kts | 136° |
| 2026-05-06 17:37 | 41.07239 | 9.72258 | 3338 ft | 216 kts | 136° |
| 2026-05-06 17:37 | 41.06150 | 9.73602 | 3156 ft | 210 kts | 142° |
| 2026-05-06 17:37 | 41.04890 | 9.74466 | 3064 ft | 200 kts | 165° |
| 2026-05-06 17:38 | 41.03555 | 9.74658 | 3064 ft | 190 kts | 185° |
| 2026-05-06 17:38 | 41.02288 | 9.74255 | 3065 ft | 187 kts | 204° |
| 2026-05-06 17:38 | 41.01220 | 9.73337 | 3106 ft | 183 kts | 223° |
| 2026-05-06 17:38 | 41.00440 | 9.72053 | 3085 ft | 177 kts | 235° |
| 2026-05-06 17:39 | 40.99749 | 9.70721 | 3041 ft | 175 kts | 236° |
| 2026-05-06 17:39 | 40.99061 | 9.69398 | 2879 ft | 174 kts | 236° |
| 2026-05-06 17:39 | 40.98379 | 9.68085 | 2676 ft | 173 kts | 235° |
| 2026-05-06 17:39 | 40.97697 | 9.66776 | 2457 ft | 172 kts | 235° |
| 2026-05-06 17:40 | 40.97024 | 9.65483 | 2222 ft | 168 kts | 235° |
| 2026-05-06 17:40 | 40.96375 | 9.64236 | 2010 ft | 161 kts | 235° |
| 2026-05-06 17:40 | 40.95749 | 9.63035 | 1802 ft | 156 kts | 235° |
| 2026-05-06 17:40 | 40.95150 | 9.61886 | 1607 ft | 147 kts | 235° |
| 2026-05-06 17:41 | 40.94582 | 9.60796 | 1410 ft | 142 kts | 235° |
| 2026-05-06 17:41 | 40.94030 | 9.59732 | 1218 ft | 140 kts | 236° |
| 2026-05-06 17:41 | 40.93509 | 9.58655 | 1037 ft | 138 kts | 237° |
| 2026-05-06 17:41 | 40.92942 | 9.57629 | 849 ft | 138 kts | 233° |
| 2026-05-06 17:42 | 40.92399 | 9.56601 | 673 ft | 138 kts | 235° |
| 2026-05-06 17:42 | 40.91849 | 9.55569 | 490 ft | 137 kts | 235° |
| 2026-05-06 17:42 | 40.91308 | 9.54530 | 309 ft | 137 kts | 236° |
| 2026-05-06 17:42 | 40.90772 | 9.53492 | 119 ft | 137 kts | 235° |
| 2026-05-06 17:43 | 40.90254 | 9.52501 | 36 ft | 115 kts | 235° |
| 2026-05-06 17:43 | 40.89902 | 9.51828 | 33 ft | 63 kts | 236° |
| 2026-05-06 17:43 | 40.89699 | 9.51445 | 33 ft | 43 kts | 235° |
| 2026-05-06 17:43 | 40.89633 | 9.51188 | 34 ft | 28 kts | 283° |
| 2026-05-06 17:44 | 40.89750 | 9.51157 | 34 ft | 19 kts | 49° |
| 2026-05-06 17:44 | 40.89830 | 9.51304 | 34 ft | 21 kts | 54° |
| 2026-05-06 17:44 | 40.89918 | 9.51469 | 34 ft | 23 kts | 56° |
| 2026-05-06 17:44 | 40.90010 | 9.51651 | 34 ft | 25 kts | 56° |
| 2026-05-06 17:45 | 40.90113 | 9.51846 | 34 ft | 24 kts | 54° |
| 2026-05-06 17:45 | 40.90187 | 9.51849 | 34 ft | 6 kts | 278° |
| 2026-05-06 17:45 | 40.90221 | 9.51776 | 34 ft | 10 kts | 284° |
| 2026-05-06 17:45 | 40.90253 | 9.51721 | 34 ft | 7 kts | 327° |
| 2026-05-06 17:46 | 40.90272 | 9.51705 | 34 ft | 0 kts | 324° |